Terminal Aerodrome Forecast
Issued by NWS Lake Charles, LA

Home | Current Version | Previous Version | Text Only | Print | Product List | Glossary On
Versions: 1 2 3 4 5 6 7 8 9 10 11 12 13 14 15 16 17 18 19 20 21
000
FTUS44 KLCH 182335
TAFBPT
TAF
KBPT 182335Z 1900/1924 16008KT P6SM -SHRA VCTS BKN008CB BKN050
     FM190300 16006KT 4SM BR VCSH OVC008
     FM190600 16005KT 2SM BR VCSH OVC005
     FM191000 20005KT 2SM -SHRA VCTS OVC005CB
     FM191500 22007KT 5SM -SHRA VCTS OVC007CB=

USA.gov is the U.S. government's official web portal to all federal, state and local government web resources and services.